John Day, OR (97845)

10:16 PM PST on February 19, 2017 (GMT -0800)
Grant County Airport south, Oregon | | Change Station

Elev 3696 ft 44.40 °N, 118.97 °W | Updated 7 seconds ago

Mostly Cloudy
Mostly Cloudy
35.2 °F
Feels Like 30 °F
N
6.3
Wind Variable Wind from ENE

Today
High -- | Low -- °F
--% Chance of Precip.
Yesterday
High -- | Low -- °F
Precip. -- in
Pressure 29.68 in
Visibility 10.0 miles
Clouds Mostly Cloudy 5000 ft
Mostly Cloudy 6000 ft
Mostly Cloudy 7500 ft
Windchill 30 °F
Dew Point 33 °F
Humidity 92%
Rainfall 0.06 in
Snow Depth Not available.
6:48 AM 5:30 PM
Last Quarter, 37% visible
METAR KGCD 200555Z AUTO 05004KT 10SM BKN050 BKN060 BKN075 03/01 A2968 RMK AO2 60003 T00270013 10052 20024
Pressure 29.68 in
Visibility 10.0 miles
Clouds Mostly Cloudy 5000 ft
Mostly Cloudy 6000 ft
Mostly Cloudy 7500 ft
Windchill 30 °F
Dew Point 33 °F
Humidity 92%
Rainfall 0.06 in
Snow Depth Not available.
6:48 AM 5:30 PM
Last Quarter, 37% visible
METAR KGCD 200555Z AUTO 05004KT 10SM BKN050 BKN060 BKN075 03/01 A2968 RMK AO2 60003 T00270013 10052 20024

Get Your Daily Forecast Email!

Thanks for signing up!

Be on the lookout for a verification email in your inbox.

You'll start receiving the daily forecast at 8 AM.

×

10-Day Weather Forecast

Almanac

Astronomy

Feb. 19, 2017 Rise Set
Actual Time
Civil Twilight
Nautical Twilight
Astronomical Twilight
Moon
Length of Visible Light
Length of Day
Tomorrow will be .
, % of the Moon is Illuminated

Today's Extremes

State Highs State Lows

Community

WunderPhotos

Upload Photos

1,962,540 photos uploaded!

WunderBlog® & News

Nearby

Air Quality

  Air Quality AQ Index Pollutant
Not available.

Snow Depth

Station Depth Elevation

Earthquake Activity

City Distance Mag. Time & Date
Minimum magnitude displayed is 2.5.

Coastal Water Temperatures

Place Temperature

Stations

Nearby Weather Stations

Station Location Temp. Windchill Dew Point Humidity Wind Precip. Elev Updated Type
                   

Watches & Warnings

There are currently no watches in effect.